Time;durP1;ratioP1;P1;durP2;ratioP2;P2;SDS_P1;SDS_P2;PMS_P1;PMS_P2;Temp;Humidity;BMP_temperature;BMP_pressure;BME280_temperature;BME280_humidity;BME280_pressure;Samples;Min_cycle;Max_cycle;Signal;HPM_P1;HPM_P2
2024/03/27 00:02:49;;;;;;;1.15;0.60;;;;;;;9.14;50.30;150970.19;10480395;28;20115;-74
2024/03/27 00:07:50;;;;;;;1.42;0.70;;;;;;;9.03;51.32;150943.09;10480260;28;20055;-74
2024/03/27 00:12:50;;;;;;;1.10;0.60;;;;;;;9.32;49.98;151017.91;10480131;28;20503;-75
2024/03/27 00:17:51;;;;;;;2.55;0.47;;;;;;;9.05;50.69;150949.56;10480150;28;20072;-73
2024/03/27 00:22:52;;;;;;;1.00;0.80;;;;;;;9.18;50.54;150981.81;10480201;28;20040;-74
2024/03/27 00:27:53;;;;;;;0.95;0.60;;;;;;;9.10;51.32;150961.16;10479886;28;20100;-74
2024/03/27 00:32:58;;;;;;;1.10;0.70;;;;;;;9.54;49.55;151072.09;10488149;28;20458;-74
2024/03/27 00:37:59;;;;;;;1.58;0.70;;;;;;;9.82;48.22;151143.06;10489501;28;20053;-75
2024/03/27 00:42:59;;;;;;;0.75;0.50;;;;;;;9.73;49.40;151119.81;10488398;28;20044;-75
2024/03/27 00:48:00;;;;;;;1.52;0.73;;;;;;;9.80;49.33;151139.19;10487694;28;20048;-74
2024/03/27 00:53:02;;;;;;;1.83;0.77;;;;;;;9.56;49.60;151077.25;10487771;28;20128;-74
2024/03/27 00:58:03;;;;;;;0.73;0.60;;;;;;;9.77;49.27;151131.44;10487688;28;20496;-74
2024/03/27 01:03:04;;;;;;;0.98;0.57;;;;;;;9.76;49.36;151127.59;10487116;28;20043;-74
2024/03/27 01:08:05;;;;;;;0.90;0.52;;;;;;;9.39;50.69;151034.72;10487642;28;20040;-74
2024/03/27 01:13:07;;;;;;;1.35;0.60;;;;;;;9.34;50.73;151021.78;10487561;28;20036;-74
2024/03/27 01:18:08;;;;;;;0.70;0.47;;;;;;;9.31;51.55;151015.34;10487848;28;20040;-73
2024/03/27 01:23:09;;;;;;;0.75;0.60;;;;;;;9.43;50.94;151043.69;10486759;28;20493;-75
2024/03/27 01:28:10;;;;;;;1.05;0.82;;;;;;;9.47;51.02;151054.03;10471137;28;20050;-73
2024/03/27 01:33:11;;;;;;;0.82;0.63;;;;;;;9.24;51.83;150997.25;10490085;28;20044;-74
2024/03/27 01:38:12;;;;;;;1.27;0.80;;;;;;;9.33;51.03;151019.19;10486458;28;20045;-75
2024/03/27 01:43:13;;;;;;;1.13;0.70;;;;;;;9.28;51.67;151006.31;10485635;28;20051;-74
2024/03/27 01:48:14;;;;;;;1.17;0.60;;;;;;;9.26;52.15;151001.16;10470374;28;20055;-74
2024/03/27 01:53:15;;;;;;;0.98;0.57;;;;;;;9.17;52.03;150977.94;10485750;28;20047;-74
2024/03/27 01:58:17;;;;;;;1.20;0.65;;;;;;;8.97;52.96;150928.91;10485963;28;20051;-74
2024/03/27 02:03:18;;;;;;;1.08;0.60;;;;;;;8.67;53.84;150852.84;10485111;28;20037;-75
2024/03/27 02:08:18;;;;;;;1.20;0.70;;;;;;;8.91;52.83;150913.47;10484794;28;20412;-74
2024/03/27 02:13:19;;;;;;;1.73;0.85;;;;;;;8.71;53.51;150863.16;10468285;28;20037;-75
2024/03/27 02:18:20;;;;;;;1.65;0.80;;;;;;;8.68;53.54;150854.16;10485385;28;20110;-74
2024/03/27 02:23:25;;;;;;;2.03;0.45;;;;;;;8.53;54.02;150818.03;10484631;28;20044;-74
2024/03/27 02:28:26;;;;;;;1.60;0.90;;;;;;;8.44;54.67;150794.81;10485079;28;20045;-74
2024/03/27 02:33:27;;;;;;;1.83;0.90;;;;;;;8.59;53.74;150832.25;10484126;28;20029;-74
2024/03/27 02:38:28;;;;;;;1.27;0.70;;;;;;;8.55;53.58;150821.94;10484068;28;20036;-74
2024/03/27 02:43:29;;;;;;;1.08;0.70;;;;;;;8.39;54.51;150781.94;10484309;28;20042;-74
2024/03/27 02:48:29;;;;;;;0.93;0.70;;;;;;;8.30;55.17;150759.97;10483744;28;20048;-74
2024/03/27 02:53:30;;;;;;;1.42;0.80;;;;;;;8.36;55.15;150774.16;10482419;28;20494;-73
2024/03/27 02:58:31;;;;;;;1.23;0.68;;;;;;;8.30;54.75;150758.69;10484675;28;20048;-73
2024/03/27 03:03:32;;;;;;;1.80;0.70;;;;;;;8.39;55.17;150781.94;10482975;28;20506;-75
2024/03/27 03:08:33;;;;;;;1.20;0.77;;;;;;;8.26;55.76;150749.66;10466038;28;20128;-74
2024/03/27 03:13:33;;;;;;;0.57;0.50;;;;;;;8.12;56.16;150713.59;10482266;28;20542;-74
2024/03/27 03:18:34;;;;;;;1.35;0.68;;;;;;;8.01;57.23;150686.53;10484540;28;20040;-74
2024/03/27 03:23:36;;;;;;;1.13;0.80;;;;;;;8.07;57.30;150702.00;10482367;28;20093;-75
2024/03/27 03:28:36;;;;;;;0.63;0.57;;;;;;;8.09;57.19;150707.13;10481720;28;20041;-74
2024/03/27 03:33:37;;;;;;;0.80;0.60;;;;;;;7.98;57.81;150678.81;10482209;28;20036;-74
2024/03/27 03:38:38;;;;;;;1.10;0.50;;;;;;;7.89;58.35;150655.59;10481644;28;20037;-75
2024/03/27 03:43:39;;;;;;;1.30;0.70;;;;;;;7.94;58.33;150667.22;10481184;28;20063;-75
2024/03/27 03:48:40;;;;;;;2.33;1.00;;;;;;;7.90;58.64;150656.91;10481809;28;20418;-75
2024/03/27 03:53:41;;;;;;;1.65;0.77;;;;;;;7.77;59.46;150624.69;10464472;28;20143;-74
2024/03/27 03:58:41;;;;;;;0.52;0.35;;;;;;;7.71;60.22;150610.53;10481401;28;20033;-74
2024/03/27 04:03:43;;;;;;;1.05;0.70;;;;;;;7.67;60.99;150598.94;10480617;28;20032;-74
2024/03/27 04:08:44;;;;;;;1.25;0.70;;;;;;;7.64;60.85;150592.47;10464567;28;20519;-74
2024/03/27 04:13:45;;;;;;;1.17;0.77;;;;;;;7.80;60.25;150632.44;10481095;28;20046;-74
2024/03/27 04:18:46;;;;;;;1.50;0.57;;;;;;;7.80;60.52;150632.44;10481075;28;20044;-75
2024/03/27 04:23:46;;;;;;;0.70;0.60;;;;;;;7.86;61.17;150647.88;10480696;28;20029;-75
2024/03/27 04:28:47;;;;;;;1.75;0.88;;;;;;;7.77;60.84;150624.69;10463934;28;20056;-74
2024/03/27 04:33:48;;;;;;;1.50;0.95;;;;;;;7.90;59.91;150658.19;10480480;28;20039;-74
2024/03/27 04:38:49;;;;;;;1.27;0.88;;;;;;;7.84;60.44;150644.00;10480822;28;20120;-74
2024/03/27 04:43:49;;;;;;;0.70;0.70;;;;;;;8.02;59.73;150689.13;10480386;28;20139;-74
2024/03/27 04:48:50;;;;;;;2.33;0.90;;;;;;;8.18;58.94;150729.03;10480544;28;20271;-74
2024/03/27 04:53:51;;;;;;;1.17;0.90;;;;;;;8.03;59.73;150690.41;10479721;28;20526;-75
2024/03/27 04:58:55;;;;;;;2.60;1.00;;;;;;;7.97;59.68;150674.91;10480430;28;20517;-73
2024/03/27 05:03:56;;;;;;;1.35;0.80;;;;;;;8.12;58.71;150712.31;10480883;28;20050;-73
2024/03/27 05:08:56;;;;;;;1.13;0.70;;;;;;;8.14;58.40;150718.72;10463274;28;20072;-74
2024/03/27 05:13:57;;;;;;;1.55;0.63;;;;;;;8.29;57.67;150756.13;10462774;28;20068;-74
2024/03/27 05:18:58;;;;;;;2.28;0.88;;;;;;;8.25;58.18;150747.09;10486492;28;20045;-74
2024/03/27 05:23:59;;;;;;;1.13;0.70;;;;;;;8.19;58.90;150730.31;10470197;28;20331;-73
2024/03/27 05:28:59;;;;;;;1.05;0.80;;;;;;;8.33;57.91;150766.44;10486943;28;20076;-74
2024/03/27 05:34:00;;;;;;;1.65;1.00;;;;;;;8.18;59.11;150729.03;10486246;28;20161;-74
2024/03/27 05:39:02;;;;;;;1.85;1.23;;;;;;;8.16;58.91;150723.91;10486386;28;20068;-74
2024/03/27 05:44:04;;;;;;;2.65;0.90;;;;;;;8.41;58.03;150787.13;10485807;28;20040;-75
2024/03/27 05:49:05;;;;;;;1.10;0.80;;;;;;;8.50;58.33;150809.00;10486300;28;20056;-73
2024/03/27 05:54:06;;;;;;;1.00;0.90;;;;;;;8.53;57.72;150816.75;10486050;28;20381;-73
2024/03/27 05:59:07;;;;;;;1.17;0.90;;;;;;;8.68;57.67;150854.16;10485993;28;20056;-74
2024/03/27 06:04:08;;;;;;;3.00;1.00;;;;;;;8.68;57.99;150855.44;10485279;28;20050;-74
2024/03/27 06:09:08;;;;;;;1.25;0.90;;;;;;;8.95;56.51;150922.50;10485366;28;20090;-73
2024/03/27 06:14:09;;;;;;;0.93;0.70;;;;;;;8.99;57.51;150934.09;10484727;28;20036;-73
2024/03/27 06:19:10;;;;;;;5.72;0.80;;;;;;;9.22;56.15;150990.84;10485340;28;20123;-74
2024/03/27 06:24:11;;;;;;;2.47;1.02;;;;;;;9.54;55.72;151072.09;10467997;28;20048;-74
2024/03/27 06:29:12;;;;;;;1.27;0.85;;;;;;;9.54;56.20;151072.09;10484960;28;20458;-74
2024/03/27 06:34:13;;;;;;;1.20;0.73;;;;;;;9.60;55.37;151088.84;10484184;28;20140;-73
2024/03/27 06:39:14;;;;;;;3.03;1.20;;;;;;;9.63;56.39;151095.31;10484700;28;20066;-74
2024/03/27 06:44:15;;;;;;;2.40;0.80;;;;;;;9.53;56.50;151070.81;10483985;28;20059;-75
2024/03/27 06:49:21;;;;;;;1.17;1.08;;;;;;;9.95;55.67;151176.59;10485152;28;20378;-75
2024/03/27 06:54:22;;;;;;;1.38;0.75;;;;;;;10.22;55.93;151243.72;10484453;28;20036;-74
2024/03/27 06:59:23;;;;;;;1.58;0.85;;;;;;;10.29;54.89;151261.84;10485319;28;20151;-74
2024/03/27 07:04:25;;;;;;;1.67;0.88;;;;;;;10.59;53.75;151339.31;10483332;28;20036;-73
2024/03/27 07:09:26;;;;;;;1.35;1.00;;;;;;;10.94;53.28;151427.16;10483281;28;20044;-74
2024/03/27 07:14:27;;;;;;;1.75;0.60;;;;;;;11.09;53.63;151464.59;10483124;28;20384;-74
2024/03/27 07:19:28;;;;;;;2.25;0.77;;;;;;;11.37;53.65;151536.91;10483259;28;20033;-74
2024/03/27 07:24:29;;;;;;;1.38;0.80;;;;;;;11.54;51.27;151579.56;10482685;28;20094;-74
2024/03/27 07:29:30;;;;;;;0.98;0.77;;;;;;;11.55;52.34;151580.84;10465749;28;20036;-73
2024/03/27 07:34:31;;;;;;;1.60;1.08;;;;;;;11.76;50.69;151635.13;10481032;28;20037;-73
2024/03/27 07:39:31;;;;;;;0.88;0.82;;;;;;;11.89;50.54;151666.19;10481744;28;20072;-74
2024/03/27 07:44:32;;;;;;;0.95;0.77;;;;;;;11.97;49.08;151688.16;10481641;28;20048;-75
2024/03/27 07:49:33;;;;;;;0.90;0.70;;;;;;;12.16;49.23;151736.00;10482266;28;20056;-74
2024/03/27 07:54:34;;;;;;;0.63;0.57;;;;;;;11.85;49.84;151658.44;10462110;28;20085;-73
2024/03/27 07:59:34;;;;;;;1.02;0.82;;;;;;;11.85;48.82;151657.13;10441002;28;20051;-74
2024/03/27 08:04:35;;;;;;;1.00;0.70;;;;;;;11.96;51.36;151684.31;10439014;28;20037;-74
2024/03/27 08:09:36;;;;;;;1.50;0.82;;;;;;;12.20;48.41;151746.34;10440289;28;20049;-73
2024/03/27 08:14:37;;;;;;;1.10;0.90;;;;;;;12.36;49.80;151786.44;10439057;28;20493;-73
2024/03/27 08:19:40;;;;;;;1.33;0.77;;;;;;;12.68;47.66;151866.59;10440528;28;20051;-73
2024/03/27 08:24:41;;;;;;;0.85;0.73;;;;;;;12.75;49.34;151886.00;10443846;28;20041;-75
2024/03/27 08:29:42;;;;;;;1.30;0.70;;;;;;;12.63;48.89;151854.94;10443406;28;20045;-74
2024/03/27 08:34:43;;;;;;;1.70;0.80;;;;;;;12.69;49.95;151869.16;10426368;28;20425;-74
2024/03/27 08:39:43;;;;;;;1.17;0.70;;;;;;;13.00;49.22;151948.06;10439919;28;20076;-73
2024/03/27 08:44:44;;;;;;;0.77;0.70;;;;;;;13.16;48.41;151988.19;10423588;28;20049;-74
2024/03/27 08:49:45;;;;;;;1.77;0.85;;;;;;;12.99;47.02;151946.78;10440765;28;20048;-73
2024/03/27 08:54:46;;;;;;;1.10;0.80;;;;;;;13.04;48.24;151959.69;10447809;28;20036;-73
2024/03/27 08:59:47;;;;;;;1.25;0.80;;;;;;;13.04;47.68;151958.41;10447792;28;20505;-74
2024/03/27 09:04:48;;;;;;;1.67;1.00;;;;;;;13.37;47.37;152043.88;10447673;28;20044;-73
2024/03/27 09:09:49;;;;;;;1.27;0.93;;;;;;;13.44;47.53;152060.66;10447385;28;20045;-74
2024/03/27 09:14:50;;;;;;;1.00;0.70;;;;;;;13.41;47.23;152052.88;10446660;28;20080;-73
2024/03/27 09:19:51;;;;;;;1.70;0.90;;;;;;;13.54;47.96;152085.25;10430989;28;20052;-74
2024/03/27 09:24:55;;;;;;;1.63;0.85;;;;;;;13.87;48.19;152169.38;10446735;28;20037;-73
2024/03/27 09:29:56;;;;;;;0.90;0.60;;;;;;;14.10;46.62;152227.63;10445977;28;20146;-73
2024/03/27 09:34:57;;;;;;;0.77;0.70;;;;;;;14.10;45.49;152227.63;10445610;28;20175;-73
2024/03/27 09:39:57;;;;;;;1.27;0.70;;;;;;;14.45;45.71;152316.97;10445449;28;20037;-73
2024/03/27 09:44:58;;;;;;;0.90;0.70;;;;;;;14.69;44.33;152376.56;10428928;28;20056;-73
2024/03/27 09:49:59;;;;;;;1.65;1.05;;;;;;;14.99;46.33;152453.00;10445525;28;20041;-73
2024/03/27 09:55:02;;;;;;;4.22;0.82;;;;;;;15.59;46.26;152605.91;10441742;28;20477;-73
2024/03/27 10:00:06;;;;;;;0.85;0.73;;;;;;;15.78;44.05;152655.19;10444606;28;20041;-73
2024/03/27 10:05:10;;;;;;;2.42;1.35;;;;;;;15.34;44.96;152543.69;10443968;28;20036;-72
2024/03/27 10:10:11;;;;;;;1.23;0.70;;;;;;;15.25;44.37;152519.06;10445108;28;20049;-74
2024/03/27 10:15:12;;;;;;;1.13;0.95;;;;;;;15.10;44.24;152481.50;10445686;28;20416;-74
2024/03/27 10:20:12;;;;;;;2.03;0.80;;;;;;;15.32;44.89;152538.53;10444708;28;20037;-75
2024/03/27 10:25:13;;;;;;;2.55;1.20;;;;;;;15.47;45.13;152576.06;10445367;28;20053;-74
2024/03/27 10:30:14;;;;;;;1.70;1.13;;;;;;;15.81;43.99;152661.69;10445200;28;20063;-73
2024/03/27 10:35:15;;;;;;;1.33;0.80;;;;;;;16.01;44.05;152712.22;10444273;28;20412;-73
2024/03/27 10:40:22;;;;;;;4.20;0.98;;;;;;;15.83;44.61;152666.84;10444113;28;20095;-73
2024/03/27 10:45:23;;;;;;;0.82;0.77;;;;;;;15.95;43.86;152697.97;10443920;28;20489;-72
2024/03/27 10:50:28;;;;;;;1.35;0.90;;;;;;;16.46;43.30;152827.59;10443619;28;20079;-73
2024/03/27 10:55:29;;;;;;;1.23;0.90;;;;;;;16.47;43.11;152830.22;10443457;28;20045;-73
2024/03/27 11:00:31;;;;;;;2.70;1.20;;;;;;;16.72;42.52;152892.44;10443014;28;20377;-74
2024/03/27 11:05:32;;;;;;;2.70;1.45;;;;;;;16.65;43.63;152876.91;10426435;28;20033;-74
2024/03/27 11:10:33;;;;;;;1.48;1.30;;;;;;;17.17;44.64;153007.91;10443506;28;20044;-73
2024/03/27 11:15:38;;;;;;;2.25;1.00;;;;;;;17.13;42.40;152997.53;10442064;28;20037;-73
2024/03/27 11:20:49;;;;;;;7.72;1.00;;;;;;;17.24;42.48;153026.09;10443153;28;20098;-73
2024/03/27 11:25:54;;;;;;;1.38;0.90;;;;;;;17.74;44.06;153152.00;10442250;28;20040;-73
2024/03/27 11:30:56;;;;;;;1.40;1.00;;;;;;;17.29;42.11;153039.06;10425286;28;20419;-73
2024/03/27 11:35:57;;;;;;;1.00;0.90;;;;;;;16.98;43.65;152958.66;10442184;28;20083;-73
2024/03/27 11:40:57;;;;;;;2.35;2.15;;;;;;;17.12;44.86;152996.25;10425409;28;20095;-73
2024/03/27 11:45:59;;;;;;;2.30;1.00;;;;;;;17.15;44.57;153004.03;10441188;28;20378;-73
2024/03/27 11:51:03;;;;;;;1.58;1.20;;;;;;;16.64;44.65;152872.97;10441627;28;20098;-73
2024/03/27 11:56:04;;;;;;;1.77;0.93;;;;;;;16.72;46.42;152893.78;10440136;28;20404;-73
2024/03/27 12:01:05;;;;;;;2.28;1.42;;;;;;;16.97;45.30;152957.34;10441485;28;20041;-73
2024/03/27 12:06:06;;;;;;;1.40;1.10;;;;;;;17.28;43.80;153035.19;10441229;28;20045;-73
2024/03/27 12:11:10;;;;;;;1.27;1.05;;;;;;;17.03;46.95;152972.91;10440284;28;20528;-73
2024/03/27 12:16:12;;;;;;;1.40;0.93;;;;;;;17.36;45.40;153055.97;10441091;28;20132;-74
2024/03/27 12:21:15;;;;;;;3.40;1.33;;;;;;;17.22;45.63;153020.94;10441274;28;20059;-73
2024/03/27 12:26:18;;;;;;;2.22;1.38;;;;;;;17.03;45.65;152972.91;10445475;28;20048;-73
2024/03/27 12:31:23;;;;;;;1.52;1.20;;;;;;;17.05;46.70;152978.13;10448607;28;20412;-73
2024/03/27 12:36:24;;;;;;;1.50;0.90;;;;;;;16.73;47.96;152895.06;10449254;28;20068;-74
2024/03/27 12:41:25;;;;;;;1.85;1.20;;;;;;;16.80;47.84;152914.53;10447936;28;20053;-73
2024/03/27 12:46:26;;;;;;;1.70;1.23;;;;;;;16.88;47.23;152935.28;10432006;28;20044;-74
2024/03/27 12:51:27;;;;;;;1.23;0.93;;;;;;;16.95;48.69;152952.13;10448258;28;20044;-74
2024/03/27 12:56:30;;;;;;;3.72;1.20;;;;;;;17.19;47.99;153013.13;10431459;28;20041;-74
2024/03/27 13:01:32;;;;;;;1.15;1.00;;;;;;;17.04;49.07;152974.19;10431064;28;20053;-74
2024/03/27 13:06:34;;;;;;;1.85;1.17;;;;;;;17.20;48.26;153015.72;10448428;28;20060;-74
2024/03/27 13:11:35;;;;;;;1.90;0.88;;;;;;;17.06;48.04;152980.69;10447923;28;20039;-73
2024/03/27 13:16:36;;;;;;;1.25;1.10;;;;;;;17.04;49.80;152975.47;10447462;28;20048;-73
2024/03/27 13:21:37;;;;;;;1.75;0.90;;;;;;;17.11;48.70;152993.66;10447083;28;20056;-74
2024/03/27 13:26:38;;;;;;;1.52;0.98;;;;;;;17.23;49.36;153023.53;10447218;28;20567;-74
2024/03/27 13:31:38;;;;;;;2.25;1.20;;;;;;;17.28;49.47;153035.19;10447448;28;20120;-72
2024/03/27 13:36:39;;;;;;;1.98;1.13;;;;;;;17.29;48.34;153037.78;10429422;28;20056;-73
2024/03/27 13:41:40;;;;;;;1.15;0.90;;;;;;;17.23;49.50;153023.53;10445966;28;20047;-73
2024/03/27 13:46:41;;;;;;;1.23;1.10;;;;;;;17.38;49.24;153061.13;10446518;28;20473;-73
2024/03/27 13:51:42;;;;;;;1.80;0.98;;;;;;;17.51;49.94;153094.88;10429740;28;20112;-73
2024/03/27 13:56:42;;;;;;;1.70;1.20;;;;;;;17.32;49.69;153046.88;10444826;28;20048;-72
2024/03/27 14:01:46;;;;;;;1.33;1.23;;;;;;;17.82;48.18;153172.78;10428795;28;20043;-74
2024/03/27 14:06:47;;;;;;;1.00;0.80;;;;;;;17.94;49.45;153203.94;10445148;28;20481;-73
2024/03/27 14:11:49;;;;;;;1.40;1.10;;;;;;;17.87;48.17;153185.75;10443934;28;20404;-73
2024/03/27 14:16:50;;;;;;;4.38;1.08;;;;;;;17.76;48.44;153157.22;10444966;28;20044;-73
2024/03/27 14:21:50;;;;;;;1.98;1.35;;;;;;;18.12;48.68;153249.38;10444791;28;20037;-73
2024/03/27 14:26:52;;;;;;;1.20;0.98;;;;;;;18.11;48.64;153246.81;10445760;28;20044;-74
2024/03/27 14:31:53;;;;;;;1.42;1.17;;;;;;;18.15;48.93;153258.47;10445754;28;20037;-74
2024/03/27 14:36:53;;;;;;;2.58;1.38;;;;;;;18.22;49.42;153275.34;10444976;28;20055;-73
2024/03/27 14:41:54;;;;;;;2.08;1.25;;;;;;;18.43;49.29;153327.28;10443814;28;20033;-74
2024/03/27 14:46:55;;;;;;;2.63;1.20;;;;;;;18.58;48.05;153366.22;10443813;28;20048;-74
2024/03/27 14:51:56;;;;;;;1.85;1.30;;;;;;;18.37;48.51;153314.31;10444448;28;20400;-72
2024/03/27 14:56:57;;;;;;;1.65;1.20;;;;;;;18.17;49.92;153261.06;10427390;28;20144;-73
2024/03/27 15:01:58;;;;;;;2.65;1.10;;;;;;;18.27;50.06;153288.31;10443175;28;20120;-73
2024/03/27 15:06:59;;;;;;;1.42;1.10;;;;;;;18.12;50.21;153250.69;10410280;28;20524;-73
2024/03/27 15:12:00;;;;;;;2.60;1.33;;;;;;;17.95;51.10;153206.53;10442518;28;20041;-73
2024/03/27 15:17:01;;;;;;;2.30;1.10;;;;;;;17.88;51.34;153189.69;10442692;28;20106;-73
2024/03/27 15:22:01;;;;;;;1.05;0.95;;;;;;;17.92;50.99;153198.72;10442955;28;20040;-73
2024/03/27 15:27:02;;;;;;;1.65;1.10;;;;;;;17.69;51.86;153140.28;10442881;28;20094;-73
2024/03/27 15:32:03;;;;;;;1.55;1.17;;;;;;;17.71;51.96;153145.50;10441550;28;20520;-74
2024/03/27 15:37:04;;;;;;;0.80;0.80;;;;;;;17.75;51.62;153154.59;10442138;28;20405;-74
2024/03/27 15:42:05;;;;;;;2.78;1.02;;;;;;;17.56;52.99;153107.84;10440327;28;20041;-75
2024/03/27 15:47:06;;;;;;;1.45;1.00;;;;;;;17.76;51.31;153157.22;10439878;28;20475;-73
2024/03/27 15:52:07;;;;;;;1.75;1.10;;;;;;;17.59;52.40;153114.34;10440792;28;20120;-74
2024/03/27 15:57:09;;;;;;;2.53;1.02;;;;;;;17.58;53.52;153111.75;10440493;28;20036;-74
2024/03/27 16:02:09;;;;;;;0.98;0.80;;;;;;;17.59;52.86;153115.63;10449761;28;20096;-74
2024/03/27 16:07:10;;;;;;;1.58;1.10;;;;;;;17.57;54.13;153110.41;10482891;28;20484;-73
2024/03/27 16:12:11;;;;;;;3.95;2.13;;;;;;;17.48;54.31;153087.06;10482739;28;20404;-74
2024/03/27 16:17:13;;;;;;;2.17;1.55;;;;;;;17.53;53.93;153100.09;10465381;28;20045;-74
2024/03/27 16:22:14;;;;;;;2.17;1.13;;;;;;;17.57;53.88;153110.41;10482019;28;20037;-74
2024/03/27 16:27:14;;;;;;;1.42;1.20;;;;;;;17.38;55.92;153061.13;10481686;28;20121;-72
2024/03/27 16:32:15;;;;;;;1.48;1.20;;;;;;;17.26;56.24;153031.28;10480680;28;20033;-73
2024/03/27 16:37:16;;;;;;;1.38;1.05;;;;;;;17.23;56.31;153023.53;10482184;28;20044;-73
2024/03/27 16:42:17;;;;;;;1.95;1.30;;;;;;;17.20;56.73;153014.44;10481238;28;20032;-74
2024/03/27 16:47:18;;;;;;;1.70;1.45;;;;;;;17.08;57.67;152985.88;10481586;28;20055;-74
2024/03/27 16:52:18;;;;;;;2.28;1.70;;;;;;;17.03;58.08;152971.59;10482346;28;20056;-73
2024/03/27 16:57:19;;;;;;;2.67;1.52;;;;;;;16.90;58.93;152939.16;10482324;28;20102;-74
2024/03/27 17:02:21;;;;;;;2.75;1.20;;;;;;;16.76;59.48;152902.88;10481959;28;20411;-74
2024/03/27 17:07:21;;;;;;;1.30;0.98;;;;;;;16.39;60.44;152809.47;10483080;28;20047;-74
2024/03/27 17:12:22;;;;;;;1.35;1.00;;;;;;;16.38;61.07;152808.16;10485520;28;20036;-74
2024/03/27 17:17:23;;;;;;;2.00;1.40;;;;;;;16.30;61.76;152786.13;10488722;28;20036;-73
2024/03/27 17:22:24;;;;;;;2.08;1.40;;;;;;;16.29;62.26;152783.50;10473159;28;20407;-74
2024/03/27 17:27:25;;;;;;;1.65;1.30;;;;;;;16.03;63.47;152718.72;10490067;28;20086;-73
2024/03/27 17:32:26;;;;;;;1.65;1.17;;;;;;;15.97;64.15;152703.13;10488123;28;20070;-74
2024/03/27 17:37:27;;;;;;;2.42;1.42;;;;;;;15.88;64.81;152679.78;10487863;28;20047;-74
2024/03/27 17:42:28;;;;;;;10.98;1.75;;;;;;;15.70;66.04;152633.16;10487751;28;20104;-74
2024/03/27 17:47:29;;;;;;;2.35;1.90;;;;;;;15.68;66.46;152627.97;10487613;28;20040;-73
2024/03/27 17:52:30;;;;;;;1.95;1.65;;;;;;;15.46;67.33;152573.50;10487345;28;20048;-73
2024/03/27 17:57:32;;;;;;;2.58;1.75;;;;;;;15.29;68.65;152530.72;10488532;28;20127;-74
2024/03/27 18:02:33;;;;;;;2.90;2.28;;;;;;;15.33;68.59;152539.81;10470874;28;20431;-74
2024/03/27 18:07:34;;;;;;;2.65;2.20;;;;;;;15.09;70.79;152480.19;10491681;28;20115;-73
2024/03/27 18:12:35;;;;;;;4.22;2.95;;;;;;;15.18;70.14;152502.19;10490282;28;20140;-73
2024/03/27 18:17:36;;;;;;;6.22;2.42;;;;;;;15.09;70.92;152480.19;10489644;28;20044;-74
2024/03/27 18:22:36;;;;;;;2.78;2.58;;;;;;;15.04;70.57;152465.94;10489121;28;20119;-74
2024/03/27 18:27:38;;;;;;;2.60;2.40;;;;;;;15.12;70.66;152487.97;10470254;28;20123;-73
2024/03/27 18:32:39;;;;;;;7.70;6.43;;;;;;;14.74;71.98;152389.50;10489750;28;20041;-74
2024/03/27 18:37:39;;;;;;;4.03;3.60;;;;;;;14.76;72.58;152394.72;10488938;28;20033;-73
2024/03/27 18:42:40;;;;;;;3.85;3.53;;;;;;;14.67;73.51;152371.41;10489387;28;20040;-73
2024/03/27 18:47:42;;;;;;;4.40;3.25;;;;;;;14.54;73.82;152340.31;10488966;28;20063;-75
2024/03/27 18:52:43;;;;;;;3.67;3.30;;;;;;;14.76;73.02;152394.72;10471025;28;20182;-75
2024/03/27 18:57:45;;;;;;;4.35;3.42;;;;;;;14.48;74.98;152323.47;10491113;28;20052;-76
2024/03/27 19:02:46;;;;;;;3.92;3.47;;;;;;;14.51;74.49;152331.25;10475818;28;20170;-74
2024/03/27 19:07:47;;;;;;;4.88;4.32;;;;;;;14.52;74.54;152335.16;10486673;28;20416;-74
2024/03/27 19:12:48;;;;;;;5.25;4.00;;;;;;;14.22;75.31;152258.69;10471726;28;20131;-74
2024/03/27 19:17:49;;;;;;;6.13;4.85;;;;;;;13.99;77.63;152199.13;10487853;28;20109;-73
2024/03/27 19:22:50;;;;;;;4.80;4.10;;;;;;;13.97;77.10;152193.97;10486905;28;20354;-75
2024/03/27 19:27:51;;;;;;;4.63;4.15;;;;;;;14.18;76.79;152248.34;10479842;28;20461;-74
2024/03/27 19:32:52;;;;;;;4.95;4.50;;;;;;;13.93;77.70;152184.91;10443660;28;20413;-74
2024/03/27 19:37:53;;;;;;;5.20;4.70;;;;;;;14.03;77.38;152210.81;10427490;28;20108;-74
2024/03/27 19:42:54;;;;;;;4.65;4.25;;;;;;;14.06;76.75;152218.56;10442297;28;20106;-74
2024/03/27 19:47:54;;;;;;;5.93;5.05;;;;;;;13.86;78.77;152166.81;10425570;28;20055;-74
2024/03/27 19:52:55;;;;;;;4.85;4.43;;;;;;;13.63;80.03;152109.88;10424380;28;20083;-74
2024/03/27 19:57:56;;;;;;;5.57;5.15;;;;;;;13.95;78.67;152188.81;10442809;28;20082;-74
2024/03/27 20:02:57;;;;;;;5.97;4.90;;;;;;;14.13;77.62;152235.41;10444187;28;20086;-74
2024/03/27 20:07:58;;;;;;;5.70;4.47;;;;;;;14.17;77.42;152245.78;10449077;28;20048;-73
2024/03/27 20:12:59;;;;;;;6.40;5.88;;;;;;;14.08;78.16;152222.47;10464332;28;20070;-73
2024/03/27 20:18:00;;;;;;;6.20;5.63;;;;;;;14.06;78.31;152218.56;10480903;28;20040;-74
2024/03/27 20:23:01;;;;;;;5.45;5.00;;;;;;;14.00;78.56;152203.03;10481314;28;20060;-73
2024/03/27 20:28:02;;;;;;;6.65;4.97;;;;;;;13.71;79.87;152127.94;10481044;28;20044;-73
2024/03/27 20:33:05;;;;;;;4.97;4.55;;;;;;;13.70;79.81;152126.66;10480671;28;20033;-74
2024/03/27 20:38:06;;;;;;;5.72;5.22;;;;;;;13.74;80.09;152135.72;10480891;28;20526;-74
2024/03/27 20:43:07;;;;;;;5.93;5.45;;;;;;;13.59;80.56;152099.50;10480279;28;20036;-73
2024/03/27 20:48:08;;;;;;;6.20;5.57;;;;;;;13.34;82.32;152034.78;10484942;28;20056;-72
2024/03/27 20:53:09;;;;;;;5.97;5.38;;;;;;;13.33;82.16;152033.50;10488375;28;20049;-74
2024/03/27 20:58:10;;;;;;;5.32;4.82;;;;;;;13.14;82.85;151985.56;10487803;28;20036;-73
2024/03/27 21:03:10;;;;;;;6.00;5.50;;;;;;;12.93;84.63;151929.97;10487953;28;20037;-73
2024/03/27 21:08:11;;;;;;;6.55;5.93;;;;;;;12.81;85.35;151900.22;10488124;28;20084;-73
2024/03/27 21:13:12;;;;;;;6.15;5.65;;;;;;;12.87;85.70;151917.00;10487748;28;20048;-73
2024/03/27 21:18:13;;;;;;;6.57;5.97;;;;;;;12.69;85.50;151870.44;10487165;28;20040;-73
2024/03/27 21:23:14;;;;;;;6.30;5.80;;;;;;;12.76;86.71;151887.28;10486939;28;20119;-73
2024/03/27 21:28:14;;;;;;;7.18;5.72;;;;;;;12.90;85.73;151922.22;10470205;28;20420;-74
2024/03/27 21:33:16;;;;;;;6.50;6.00;;;;;;;12.88;85.99;151919.63;10470518;28;20040;-73
2024/03/27 21:38:17;;;;;;;5.95;5.45;;;;;;;12.65;86.37;151858.81;10486682;28;20052;-72
2024/03/27 21:43:18;;;;;;;6.10;5.53;;;;;;;12.45;88.02;151809.69;10486119;28;20500;-73
2024/03/27 21:48:19;;;;;;;6.40;5.82;;;;;;;12.43;89.24;151803.22;10486108;28;20041;-72
2024/03/27 21:53:20;;;;;;;6.70;5.63;;;;;;;12.67;88.12;151865.31;10486381;28;20051;-72
2024/03/27 21:58:21;;;;;;;6.25;5.65;;;;;;;12.46;89.04;151811.00;10486689;28;20044;-72
2024/03/27 22:03:22;;;;;;;5.28;4.88;;;;;;;12.44;89.41;151807.13;10486083;28;20531;-72
2024/03/27 22:08:24;;;;;;;6.07;5.50;;;;;;;12.36;90.45;151787.72;10488043;28;20045;-72
2024/03/27 22:13:24;;;;;;;5.07;4.68;;;;;;;12.14;90.86;151730.84;10487066;28;20407;-73
2024/03/27 22:18:26;;;;;;;5.57;5.18;;;;;;;12.40;90.29;151795.50;10470748;28;20036;-73
2024/03/27 22:23:27;;;;;;;5.25;4.75;;;;;;;12.31;90.52;151774.81;10486240;28;20041;-72
2024/03/27 22:28:29;;;;;;;5.10;4.63;;;;;;;11.93;92.04;151677.84;10468161;28;20135;-72
2024/03/27 22:33:35;;;;;;;5.95;5.15;;;;;;;11.68;93.57;151614.44;10485746;28;20037;-73
2024/03/27 22:38:36;;;;;;;6.53;4.83;;;;;;;11.57;95.42;151586.03;10485909;28;20045;-73
2024/03/27 22:43:37;;;;;;;6.85;5.50;;;;;;;11.60;95.83;151595.09;10485189;28;20516;-73
2024/03/27 22:48:38;;;;;;;5.90;5.03;;;;;;;11.65;95.96;151605.44;10468910;28;20036;-72
2024/03/27 22:53:39;;;;;;;5.47;4.85;;;;;;;11.45;97.65;151555.00;10485021;28;20063;-74
2024/03/27 22:58:41;;;;;;;5.28;4.80;;;;;;;11.34;97.27;151529.19;10483695;28;20079;-74
2024/03/27 23:03:42;;;;;;;4.75;4.35;;;;;;;11.20;97.17;151493.03;10483597;28;20051;-72
2024/03/27 23:08:43;;;;;;;4.72;4.35;;;;;;;10.97;99.13;151434.88;10465953;28;20051;-72